sensor_id;sensor_type;location;lat;lon;timestamp;temperature;humidity
22173;DHT22;11252;50.596;17.648;2023-11-19T00:02:13;1.10;92.20
22173;DHT22;11252;50.596;17.648;2023-11-19T00:04:40;1.00;92.20
22173;DHT22;11252;50.596;17.648;2023-11-19T00:07:07;1.00;92.20
22173;DHT22;11252;50.596;17.648;2023-11-19T00:09:37;1.00;92.20
22173;DHT22;11252;50.596;17.648;2023-11-19T00:12:05;1.00;92.20
22173;DHT22;11252;50.596;17.648;2023-11-19T00:14:32;0.90;92.20
22173;DHT22;11252;50.596;17.648;2023-11-19T00:16:59;0.80;92.20
22173;DHT22;11252;50.596;17.648;2023-11-19T00:19:27;0.80;92.20
22173;DHT22;11252;50.596;17.648;2023-11-19T00:21:55;0.80;92.20
22173;DHT22;11252;50.596;17.648;2023-11-19T00:24:22;0.80;92.20
22173;DHT22;11252;50.596;17.648;2023-11-19T00:26:49;0.80;92.20
22173;DHT22;11252;50.596;17.648;2023-11-19T00:29:16;0.90;92.20
22173;DHT22;11252;50.596;17.648;2023-11-19T00:31:45;0.90;92.20
22173;DHT22;11252;50.596;17.648;2023-11-19T00:34:13;0.80;92.20
22173;DHT22;11252;50.596;17.648;2023-11-19T00:36:40;0.90;92.20
22173;DHT22;11252;50.596;17.648;2023-11-19T00:39:07;0.80;92.20
22173;DHT22;11252;50.596;17.648;2023-11-19T00:41:34;0.90;92.20
22173;DHT22;11252;50.596;17.648;2023-11-19T00:44:01;0.80;92.20
22173;DHT22;11252;50.596;17.648;2023-11-19T00:46:28;0.80;92.20
22173;DHT22;11252;50.596;17.648;2023-11-19T00:48:55;0.80;92.20
22173;DHT22;11252;50.596;17.648;2023-11-19T00:51:26;0.80;92.20
22173;DHT22;11252;50.596;17.648;2023-11-19T00:53:54;0.80;92.20
22173;DHT22;11252;50.596;17.648;2023-11-19T00:56:22;0.80;92.20
22173;DHT22;11252;50.596;17.648;2023-11-19T00:58:50;0.80;92.20
22173;DHT22;11252;50.596;17.648;2023-11-19T01:01:17;0.80;92.20
22173;DHT22;11252;50.596;17.648;2023-11-19T01:03:44;0.80;92.20
22173;DHT22;11252;50.596;17.648;2023-11-19T01:06:11;0.80;92.20
22173;DHT22;11252;50.596;17.648;2023-11-19T01:08:38;0.80;92.20
22173;DHT22;11252;50.596;17.648;2023-11-19T01:11:05;0.80;92.20
22173;DHT22;11252;50.596;17.648;2023-11-19T01:13:32;0.80;92.20
22173;DHT22;11252;50.596;17.648;2023-11-19T01:15:59;0.70;92.20
22173;DHT22;11252;50.596;17.648;2023-11-19T01:18:29;0.70;92.20
22173;DHT22;11252;50.596;17.648;2023-11-19T01:20:56;0.70;92.20
22173;DHT22;11252;50.596;17.648;2023-11-19T01:23:24;0.70;92.20
22173;DHT22;11252;50.596;17.648;2023-11-19T01:25:51;0.70;92.20
22173;DHT22;11252;50.596;17.648;2023-11-19T01:28:17;0.70;92.20
22173;DHT22;11252;50.596;17.648;2023-11-19T01:30:45;0.70;92.20
22173;DHT22;11252;50.596;17.648;2023-11-19T01:33:13;0.70;92.20
22173;DHT22;11252;50.596;17.648;2023-11-19T01:35:41;0.60;92.20
22173;DHT22;11252;50.596;17.648;2023-11-19T01:38:08;0.60;92.20
22173;DHT22;11252;50.596;17.648;2023-11-19T01:40:38;0.70;92.20
22173;DHT22;11252;50.596;17.648;2023-11-19T01:43:05;0.70;92.20
22173;DHT22;11252;50.596;17.648;2023-11-19T01:45:39;0.70;92.20
22173;DHT22;11252;50.596;17.648;2023-11-19T01:48:07;0.70;92.20
22173;DHT22;11252;50.596;17.648;2023-11-19T01:50:37;0.70;92.20
22173;DHT22;11252;50.596;17.648;2023-11-19T01:53:04;0.70;92.20
22173;DHT22;11252;50.596;17.648;2023-11-19T01:55:31;0.60;92.20
22173;DHT22;11252;50.596;17.648;2023-11-19T01:58:00;0.60;92.20
22173;DHT22;11252;50.596;17.648;2023-11-19T02:00:28;0.70;92.20
22173;DHT22;11252;50.596;17.648;2023-11-19T02:02:55;0.70;92.20
22173;DHT22;11252;50.596;17.648;2023-11-19T02:05:24;0.70;92.20
22173;DHT22;11252;50.596;17.648;2023-11-19T02:07:52;0.60;92.20
22173;DHT22;11252;50.596;17.648;2023-11-19T02:10:18;0.70;92.20
22173;DHT22;11252;50.596;17.648;2023-11-19T02:12:46;0.70;92.20
22173;DHT22;11252;50.596;17.648;2023-11-19T02:15:13;0.70;92.20
22173;DHT22;11252;50.596;17.648;2023-11-19T02:17:40;0.70;92.20
22173;DHT22;11252;50.596;17.648;2023-11-19T02:20:09;0.70;92.20
22173;DHT22;11252;50.596;17.648;2023-11-19T02:22:39;0.70;92.20
22173;DHT22;11252;50.596;17.648;2023-11-19T02:25:10;0.70;92.20
22173;DHT22;11252;50.596;17.648;2023-11-19T02:30:12;0.70;92.20
22173;DHT22;11252;50.596;17.648;2023-11-19T02:32:42;0.70;92.20
22173;DHT22;11252;50.596;17.648;2023-11-19T02:35:09;0.70;92.20
22173;DHT22;11252;50.596;17.648;2023-11-19T02:37:38;0.70;92.20
22173;DHT22;11252;50.596;17.648;2023-11-19T02:40:06;0.70;92.20
22173;DHT22;11252;50.596;17.648;2023-11-19T02:42:36;0.70;92.20
22173;DHT22;11252;50.596;17.648;2023-11-19T02:45:03;0.70;92.20
22173;DHT22;11252;50.596;17.648;2023-11-19T02:47:34;0.70;92.20
22173;DHT22;11252;50.596;17.648;2023-11-19T02:50:01;0.70;92.20
22173;DHT22;11252;50.596;17.648;2023-11-19T02:52:30;0.70;92.20
22173;DHT22;11252;50.596;17.648;2023-11-19T02:55:03;0.70;92.20
22173;DHT22;11252;50.596;17.648;2023-11-19T02:57:40;0.70;92.20
22173;DHT22;11252;50.596;17.648;2023-11-19T03:02:42;0.90;92.20
22173;DHT22;11252;50.596;17.648;2023-11-19T03:05:26;0.90;92.20
22173;DHT22;11252;50.596;17.648;2023-11-19T03:07:54;0.90;92.20
22173;DHT22;11252;50.596;17.648;2023-11-19T03:10:21;1.00;92.20
22173;DHT22;11252;50.596;17.648;2023-11-19T03:12:48;1.00;92.20
22173;DHT22;11252;50.596;17.648;2023-11-19T03:15:15;1.00;92.20
22173;DHT22;11252;50.596;17.648;2023-11-19T03:17:43;1.00;92.20
22173;DHT22;11252;50.596;17.648;2023-11-19T03:20:12;1.00;92.20
22173;DHT22;11252;50.596;17.648;2023-11-19T03:22:44;1.10;92.20
22173;DHT22;11252;50.596;17.648;2023-11-19T03:25:12;1.10;92.20
22173;DHT22;11252;50.596;17.648;2023-11-19T03:27:40;1.10;92.20
22173;DHT22;11252;50.596;17.648;2023-11-19T03:30:09;1.10;92.20
22173;DHT22;11252;50.596;17.648;2023-11-19T03:32:37;1.10;92.20
22173;DHT22;11252;50.596;17.648;2023-11-19T03:35:06;1.10;92.20
22173;DHT22;11252;50.596;17.648;2023-11-19T03:37:37;1.10;92.20
22173;DHT22;11252;50.596;17.648;2023-11-19T03:40:04;1.10;92.20
22173;DHT22;11252;50.596;17.648;2023-11-19T03:42:32;1.10;92.20
22173;DHT22;11252;50.596;17.648;2023-11-19T03:44:59;1.10;92.20
22173;DHT22;11252;50.596;17.648;2023-11-19T03:47:26;1.10;92.20
22173;DHT22;11252;50.596;17.648;2023-11-19T03:49:53;1.20;92.20
22173;DHT22;11252;50.596;17.648;2023-11-19T03:52:20;1.20;92.20
22173;DHT22;11252;50.596;17.648;2023-11-19T03:54:47;1.20;92.20
22173;DHT22;11252;50.596;17.648;2023-11-19T03:57:14;1.20;92.20
22173;DHT22;11252;50.596;17.648;2023-11-19T03:59:42;1.10;92.20
22173;DHT22;11252;50.596;17.648;2023-11-19T04:02:10;1.10;92.20
22173;DHT22;11252;50.596;17.648;2023-11-19T04:04:37;1.10;92.20
22173;DHT22;11252;50.596;17.648;2023-11-19T04:07:08;1.20;92.20
22173;DHT22;11252;50.596;17.648;2023-11-19T04:09:34;1.20;92.20
22173;DHT22;11252;50.596;17.648;2023-11-19T04:12:07;1.20;92.20
22173;DHT22;11252;50.596;17.648;2023-11-19T04:14:36;1.20;92.20
22173;DHT22;11252;50.596;17.648;2023-11-19T04:17:03;1.30;92.20
22173;DHT22;11252;50.596;17.648;2023-11-19T04:19:30;1.20;92.20
22173;DHT22;11252;50.596;17.648;2023-11-19T04:22:00;1.30;92.20
22173;DHT22;11252;50.596;17.648;2023-11-19T04:24:27;1.30;92.20
22173;DHT22;11252;50.596;17.648;2023-11-19T04:26:54;1.30;92.20
22173;DHT22;11252;50.596;17.648;2023-11-19T04:29:22;1.30;92.20
22173;DHT22;11252;50.596;17.648;2023-11-19T04:31:49;1.30;92.20
22173;DHT22;11252;50.596;17.648;2023-11-19T04:34:16;1.30;92.20
22173;DHT22;11252;50.596;17.648;2023-11-19T04:36:43;1.30;92.20
22173;DHT22;11252;50.596;17.648;2023-11-19T04:39:10;1.30;92.20
22173;DHT22;11252;50.596;17.648;2023-11-19T04:41:49;1.30;92.20
22173;DHT22;11252;50.596;17.648;2023-11-19T04:44:16;1.30;92.20
22173;DHT22;11252;50.596;17.648;2023-11-19T04:46:44;1.30;92.20
22173;DHT22;11252;50.596;17.648;2023-11-19T04:49:13;1.30;92.20
22173;DHT22;11252;50.596;17.648;2023-11-19T04:51:45;1.40;92.20
22173;DHT22;11252;50.596;17.648;2023-11-19T04:54:15;1.30;92.20
22173;DHT22;11252;50.596;17.648;2023-11-19T04:56:45;1.30;92.20
22173;DHT22;11252;50.596;17.648;2023-11-19T04:59:14;1.30;92.20
22173;DHT22;11252;50.596;17.648;2023-11-19T05:01:41;1.40;92.20
22173;DHT22;11252;50.596;17.648;2023-11-19T05:04:08;1.40;92.20
22173;DHT22;11252;50.596;17.648;2023-11-19T05:06:36;1.40;92.20
22173;DHT22;11252;50.596;17.648;2023-11-19T05:09:04;1.40;92.20
22173;DHT22;11252;50.596;17.648;2023-11-19T05:11:35;1.50;92.20
22173;DHT22;11252;50.596;17.648;2023-11-19T05:14:05;1.50;92.20
22173;DHT22;11252;50.596;17.648;2023-11-19T05:16:32;1.50;92.20
22173;DHT22;11252;50.596;17.648;2023-11-19T05:18:59;1.50;92.20
22173;DHT22;11252;50.596;17.648;2023-11-19T05:21:27;1.50;92.20
22173;DHT22;11252;50.596;17.648;2023-11-19T05:23:54;1.50;92.20
22173;DHT22;11252;50.596;17.648;2023-11-19T05:26:24;1.50;92.20
22173;DHT22;11252;50.596;17.648;2023-11-19T05:28:52;1.50;92.20
22173;DHT22;11252;50.596;17.648;2023-11-19T05:31:21;1.50;92.20
22173;DHT22;11252;50.596;17.648;2023-11-19T05:33:48;1.50;92.20
22173;DHT22;11252;50.596;17.648;2023-11-19T05:36:16;1.50;92.20
22173;DHT22;11252;50.596;17.648;2023-11-19T05:38:43;1.50;92.20
22173;DHT22;11252;50.596;17.648;2023-11-19T05:41:11;1.50;92.20
22173;DHT22;11252;50.596;17.648;2023-11-19T05:43:38;1.50;92.20
22173;DHT22;11252;50.596;17.648;2023-11-19T05:46:08;1.60;92.20
22173;DHT22;11252;50.596;17.648;2023-11-19T05:48:38;1.50;92.20
22173;DHT22;11252;50.596;17.648;2023-11-19T05:51:05;1.60;92.20
22173;DHT22;11252;50.596;17.648;2023-11-19T05:53:33;1.60;92.20
22173;DHT22;11252;50.596;17.648;2023-11-19T05:56:00;1.60;92.20
22173;DHT22;11252;50.596;17.648;2023-11-19T05:58:30;1.60;92.20
22173;DHT22;11252;50.596;17.648;2023-11-19T06:00:59;1.70;92.20
22173;DHT22;11252;50.596;17.648;2023-11-19T06:03:28;1.70;92.20
22173;DHT22;11252;50.596;17.648;2023-11-19T06:05:55;1.70;92.20
22173;DHT22;11252;50.596;17.648;2023-11-19T06:08:22;1.80;92.20
22173;DHT22;11252;50.596;17.648;2023-11-19T06:10:49;1.70;92.20
22173;DHT22;11252;50.596;17.648;2023-11-19T06:13:18;1.70;92.20
22173;DHT22;11252;50.596;17.648;2023-11-19T06:15:50;1.70;92.20
22173;DHT22;11252;50.596;17.648;2023-11-19T06:18:18;1.80;92.20
22173;DHT22;11252;50.596;17.648;2023-11-19T06:20:47;1.80;92.20
22173;DHT22;11252;50.596;17.648;2023-11-19T06:23:14;1.80;92.20
22173;DHT22;11252;50.596;17.648;2023-11-19T06:25:41;1.80;92.20
22173;DHT22;11252;50.596;17.648;2023-11-19T06:28:09;1.80;92.20
22173;DHT22;11252;50.596;17.648;2023-11-19T06:30:36;1.90;92.20
22173;DHT22;11252;50.596;17.648;2023-11-19T06:33:04;1.90;92.20
22173;DHT22;11252;50.596;17.648;2023-11-19T06:35:31;2.00;92.20
22173;DHT22;11252;50.596;17.648;2023-11-19T06:38:03;2.00;92.20
22173;DHT22;11252;50.596;17.648;2023-11-19T06:40:34;2.00;92.20
22173;DHT22;11252;50.596;17.648;2023-11-19T06:43:03;2.00;92.20
22173;DHT22;11252;50.596;17.648;2023-11-19T06:45:35;2.00;92.20
22173;DHT22;11252;50.596;17.648;2023-11-19T06:48:04;2.00;92.20
22173;DHT22;11252;50.596;17.648;2023-11-19T06:50:32;2.00;92.20
22173;DHT22;11252;50.596;17.648;2023-11-19T06:52:59;2.00;92.20
22173;DHT22;11252;50.596;17.648;2023-11-19T06:55:27;2.00;92.20
22173;DHT22;11252;50.596;17.648;2023-11-19T06:57:54;2.10;92.20
22173;DHT22;11252;50.596;17.648;2023-11-19T07:00:22;2.10;92.20
22173;DHT22;11252;50.596;17.648;2023-11-19T07:02:49;2.10;92.20
22173;DHT22;11252;50.596;17.648;2023-11-19T07:05:17;2.10;92.20
22173;DHT22;11252;50.596;17.648;2023-11-19T07:07:44;2.10;92.20
22173;DHT22;11252;50.596;17.648;2023-11-19T07:10:13;2.10;92.20
22173;DHT22;11252;50.596;17.648;2023-11-19T07:12:40;2.10;92.20
22173;DHT22;11252;50.596;17.648;2023-11-19T07:15:08;2.20;92.20
22173;DHT22;11252;50.596;17.648;2023-11-19T07:17:39;2.30;92.20
22173;DHT22;11252;50.596;17.648;2023-11-19T07:20:07;2.30;92.20
22173;DHT22;11252;50.596;17.648;2023-11-19T07:22:35;2.30;92.20
22173;DHT22;11252;50.596;17.648;2023-11-19T07:25:02;2.30;92.20
22173;DHT22;11252;50.596;17.648;2023-11-19T07:27:29;2.30;92.20
22173;DHT22;11252;50.596;17.648;2023-11-19T07:29:56;2.40;92.20
22173;DHT22;11252;50.596;17.648;2023-11-19T07:32:25;2.40;92.20
22173;DHT22;11252;50.596;17.648;2023-11-19T07:34:52;2.40;92.20
22173;DHT22;11252;50.596;17.648;2023-11-19T07:37:19;2.50;92.20
22173;DHT22;11252;50.596;17.648;2023-11-19T07:39:46;2.50;92.20
22173;DHT22;11252;50.596;17.648;2023-11-19T07:42:13;2.60;92.20
22173;DHT22;11252;50.596;17.648;2023-11-19T07:44:40;2.60;92.20
22173;DHT22;11252;50.596;17.648;2023-11-19T07:47:08;2.70;92.20
22173;DHT22;11252;50.596;17.648;2023-11-19T07:49:35;2.80;92.20
22173;DHT22;11252;50.596;17.648;2023-11-19T07:52:02;2.80;92.20
22173;DHT22;11252;50.596;17.648;2023-11-19T07:54:30;2.80;92.20
22173;DHT22;11252;50.596;17.648;2023-11-19T07:56:57;2.90;92.20
22173;DHT22;11252;50.596;17.648;2023-11-19T07:59:25;2.90;92.20
22173;DHT22;11252;50.596;17.648;2023-11-19T08:01:52;2.90;92.20
22173;DHT22;11252;50.596;17.648;2023-11-19T08:04:19;2.90;92.20
22173;DHT22;11252;50.596;17.648;2023-11-19T08:06:47;2.90;92.20
22173;DHT22;11252;50.596;17.648;2023-11-19T08:09:14;3.00;92.20
22173;DHT22;11252;50.596;17.648;2023-11-19T08:11:41;3.00;92.20
22173;DHT22;11252;50.596;17.648;2023-11-19T08:14:09;3.00;92.20
22173;DHT22;11252;50.596;17.648;2023-11-19T08:16:36;3.00;92.20
22173;DHT22;11252;50.596;17.648;2023-11-19T08:19:04;3.00;92.20
22173;DHT22;11252;50.596;17.648;2023-11-19T08:21:31;3.00;92.20
22173;DHT22;11252;50.596;17.648;2023-11-19T08:23:59;3.00;92.20
22173;DHT22;11252;50.596;17.648;2023-11-19T08:26:26;3.00;92.20
22173;DHT22;11252;50.596;17.648;2023-11-19T08:28:53;3.10;92.20
22173;DHT22;11252;50.596;17.648;2023-11-19T08:31:20;3.20;92.20
22173;DHT22;11252;50.596;17.648;2023-11-19T08:33:48;3.20;92.20
22173;DHT22;11252;50.596;17.648;2023-11-19T08:36:16;3.20;92.20
22173;DHT22;11252;50.596;17.648;2023-11-19T08:38:44;3.30;92.20
22173;DHT22;11252;50.596;17.648;2023-11-19T08:41:14;3.30;92.20
22173;DHT22;11252;50.596;17.648;2023-11-19T08:43:42;3.30;92.20
22173;DHT22;11252;50.596;17.648;2023-11-19T08:46:10;3.40;92.20
22173;DHT22;11252;50.596;17.648;2023-11-19T08:48:40;3.40;92.20
22173;DHT22;11252;50.596;17.648;2023-11-19T08:51:07;3.40;92.20
22173;DHT22;11252;50.596;17.648;2023-11-19T08:53:34;3.40;92.20
22173;DHT22;11252;50.596;17.648;2023-11-19T08:56:02;3.50;92.20
22173;DHT22;11252;50.596;17.648;2023-11-19T08:58:30;3.50;92.20
22173;DHT22;11252;50.596;17.648;2023-11-19T09:00:58;3.50;92.20
22173;DHT22;11252;50.596;17.648;2023-11-19T09:03:25;3.50;92.20
22173;DHT22;11252;50.596;17.648;2023-11-19T09:05:58;3.60;92.20
22173;DHT22;11252;50.596;17.648;2023-11-19T09:08:25;3.60;92.20
22173;DHT22;11252;50.596;17.648;2023-11-19T09:10:53;3.60;92.20
22173;DHT22;11252;50.596;17.648;2023-11-19T09:13:20;3.60;92.20
22173;DHT22;11252;50.596;17.648;2023-11-19T09:15:47;3.60;92.20
22173;DHT22;11252;50.596;17.648;2023-11-19T09:18:14;3.50;92.20
22173;DHT22;11252;50.596;17.648;2023-11-19T09:20:41;3.50;92.20
22173;DHT22;11252;50.596;17.648;2023-11-19T09:23:08;3.50;92.20
22173;DHT22;11252;50.596;17.648;2023-11-19T09:25:36;3.40;92.20
22173;DHT22;11252;50.596;17.648;2023-11-19T09:28:06;3.40;92.20
22173;DHT22;11252;50.596;17.648;2023-11-19T09:30:35;3.40;92.20
22173;DHT22;11252;50.596;17.648;2023-11-19T09:33:02;3.50;92.20
22173;DHT22;11252;50.596;17.648;2023-11-19T09:35:30;3.50;92.20
22173;DHT22;11252;50.596;17.648;2023-11-19T09:37:57;3.50;92.20
22173;DHT22;11252;50.596;17.648;2023-11-19T09:40:28;3.50;92.20
22173;DHT22;11252;50.596;17.648;2023-11-19T09:42:56;3.50;92.20
22173;DHT22;11252;50.596;17.648;2023-11-19T09:45:27;3.60;92.20
22173;DHT22;11252;50.596;17.648;2023-11-19T09:47:55;3.60;92.20
22173;DHT22;11252;50.596;17.648;2023-11-19T09:50:25;3.60;92.20
22173;DHT22;11252;50.596;17.648;2023-11-19T09:52:52;3.60;92.20
22173;DHT22;11252;50.596;17.648;2023-11-19T09:55:19;3.60;92.20
22173;DHT22;11252;50.596;17.648;2023-11-19T09:57:48;3.50;92.20
22173;DHT22;11252;50.596;17.648;2023-11-19T10:00:19;3.60;92.20
22173;DHT22;11252;50.596;17.648;2023-11-19T10:02:48;3.60;92.20
22173;DHT22;11252;50.596;17.648;2023-11-19T10:05:17;3.60;92.20
22173;DHT22;11252;50.596;17.648;2023-11-19T10:07:44;3.60;92.20
22173;DHT22;11252;50.596;17.648;2023-11-19T10:10:12;3.60;92.20
22173;DHT22;11252;50.596;17.648;2023-11-19T10:12:46;3.60;92.20
22173;DHT22;11252;50.596;17.648;2023-11-19T10:15:23;3.70;92.20
22173;DHT22;11252;50.596;17.648;2023-11-19T10:17:57;3.70;92.20
22173;DHT22;11252;50.596;17.648;2023-11-19T10:20:25;3.60;92.20
22173;DHT22;11252;50.596;17.648;2023-11-19T10:22:56;3.60;92.20
22173;DHT22;11252;50.596;17.648;2023-11-19T10:25:24;3.60;92.20
22173;DHT22;11252;50.596;17.648;2023-11-19T10:27:53;3.60;92.20
22173;DHT22;11252;50.596;17.648;2023-11-19T10:30:21;3.60;92.20
22173;DHT22;11252;50.596;17.648;2023-11-19T10:35:31;3.60;92.20
22173;DHT22;11252;50.596;17.648;2023-11-19T10:38:13;3.70;92.20
22173;DHT22;11252;50.596;17.648;2023-11-19T10:40:41;3.70;92.20
22173;DHT22;11252;50.596;17.648;2023-11-19T10:43:09;3.70;92.20
22173;DHT22;11252;50.596;17.648;2023-11-19T10:45:38;3.80;92.20
22173;DHT22;11252;50.596;17.648;2023-11-19T10:48:06;3.90;92.20
22173;DHT22;11252;50.596;17.648;2023-11-19T10:50:38;4.00;92.20
22173;DHT22;11252;50.596;17.648;2023-11-19T10:53:07;4.10;92.20
22173;DHT22;11252;50.596;17.648;2023-11-19T10:55:38;4.10;92.20
22173;DHT22;11252;50.596;17.648;2023-11-19T10:58:09;4.10;92.20
22173;DHT22;11252;50.596;17.648;2023-11-19T11:00:54;4.20;92.20
22173;DHT22;11252;50.596;17.648;2023-11-19T11:03:25;4.50;92.20
22173;DHT22;11252;50.596;17.648;2023-11-19T11:05:54;4.60;92.20
22173;DHT22;11252;50.596;17.648;2023-11-19T11:08:21;4.70;92.20
22173;DHT22;11252;50.596;17.648;2023-11-19T11:10:53;4.60;92.20
22173;DHT22;11252;50.596;17.648;2023-11-19T11:13:25;4.50;92.20
22173;DHT22;11252;50.596;17.648;2023-11-19T11:15:56;4.50;92.20
22173;DHT22;11252;50.596;17.648;2023-11-19T11:18:25;4.50;92.20
22173;DHT22;11252;50.596;17.648;2023-11-19T11:21:00;4.50;92.20
22173;DHT22;11252;50.596;17.648;2023-11-19T11:28:47;4.60;92.20
22173;DHT22;11252;50.596;17.648;2023-11-19T11:39:22;4.50;92.20
22173;DHT22;11252;50.596;17.648;2023-11-19T11:50:14;4.60;92.20
22173;DHT22;11252;50.596;17.648;2023-11-19T11:55:37;4.70;92.20
22173;DHT22;11252;50.596;17.648;2023-11-19T11:58:08;4.70;92.20
22173;DHT22;11252;50.596;17.648;2023-11-19T12:00:40;4.70;92.20
22173;DHT22;11252;50.596;17.648;2023-11-19T12:03:08;4.70;92.20
22173;DHT22;11252;50.596;17.648;2023-11-19T12:05:40;4.70;92.20
22173;DHT22;11252;50.596;17.648;2023-11-19T12:08:11;4.70;92.20
22173;DHT22;11252;50.596;17.648;2023-11-19T12:10:49;4.80;92.20
22173;DHT22;11252;50.596;17.648;2023-11-19T12:13:21;4.80;92.20
22173;DHT22;11252;50.596;17.648;2023-11-19T12:18:27;4.90;92.20
22173;DHT22;11252;50.596;17.648;2023-11-19T12:20:55;4.90;92.20
22173;DHT22;11252;50.596;17.648;2023-11-19T12:23:23;4.90;92.20
22173;DHT22;11252;50.596;17.648;2023-11-19T12:25:50;4.90;92.20
22173;DHT22;11252;50.596;17.648;2023-11-19T12:28:18;5.00;92.20
22173;DHT22;11252;50.596;17.648;2023-11-19T12:30:45;5.10;92.20
22173;DHT22;11252;50.596;17.648;2023-11-19T12:33:14;5.10;92.20
22173;DHT22;11252;50.596;17.648;2023-11-19T12:35:48;5.10;92.20
22173;DHT22;11252;50.596;17.648;2023-11-19T12:38:22;5.00;92.20
22173;DHT22;11252;50.596;17.648;2023-11-19T12:41:06;5.00;92.20
22173;DHT22;11252;50.596;17.648;2023-11-19T12:43:34;5.10;92.20
22173;DHT22;11252;50.596;17.648;2023-11-19T12:46:23;5.10;92.20
22173;DHT22;11252;50.596;17.648;2023-11-19T12:48:51;5.10;92.20
22173;DHT22;11252;50.596;17.648;2023-11-19T12:51:19;5.30;92.20
22173;DHT22;11252;50.596;17.648;2023-11-19T12:53:51;5.50;92.20
22173;DHT22;11252;50.596;17.648;2023-11-19T12:56:22;5.60;92.20
22173;DHT22;11252;50.596;17.648;2023-11-19T12:58:50;5.50;92.20
22173;DHT22;11252;50.596;17.648;2023-11-19T13:01:18;5.60;92.20
22173;DHT22;11252;50.596;17.648;2023-11-19T13:03:47;5.60;92.20
22173;DHT22;11252;50.596;17.648;2023-11-19T13:06:16;5.60;92.20
22173;DHT22;11252;50.596;17.648;2023-11-19T13:08:44;5.60;92.20
22173;DHT22;11252;50.596;17.648;2023-11-19T13:11:13;5.50;92.20
22173;DHT22;11252;50.596;17.648;2023-11-19T13:13:59;5.50;92.20
22173;DHT22;11252;50.596;17.648;2023-11-19T13:16:27;5.50;92.20
22173;DHT22;11252;50.596;17.648;2023-11-19T13:18:55;5.50;92.20
22173;DHT22;11252;50.596;17.648;2023-11-19T13:21:22;5.60;92.20
22173;DHT22;11252;50.596;17.648;2023-11-19T13:23:50;5.70;92.20
22173;DHT22;11252;50.596;17.648;2023-11-19T13:26:17;5.80;92.20
22173;DHT22;11252;50.596;17.648;2023-11-19T13:28:44;5.90;92.20
22173;DHT22;11252;50.596;17.648;2023-11-19T13:31:11;6.10;92.20
22173;DHT22;11252;50.596;17.648;2023-11-19T13:33:38;6.20;92.20
22173;DHT22;11252;50.596;17.648;2023-11-19T13:36:06;6.20;92.20
22173;DHT22;11252;50.596;17.648;2023-11-19T13:38:35;6.30;92.20
22173;DHT22;11252;50.596;17.648;2023-11-19T13:41:03;6.40;92.20
22173;DHT22;11252;50.596;17.648;2023-11-19T13:43:33;6.70;92.20
22173;DHT22;11252;50.596;17.648;2023-11-19T13:46:00;7.30;92.20
22173;DHT22;11252;50.596;17.648;2023-11-19T13:48:28;7.80;92.20
22173;DHT22;11252;50.596;17.648;2023-11-19T13:50:56;8.00;92.20
22173;DHT22;11252;50.596;17.648;2023-11-19T13:53:23;8.20;92.20
22173;DHT22;11252;50.596;17.648;2023-11-19T13:55:51;8.20;92.20
22173;DHT22;11252;50.596;17.648;2023-11-19T13:58:19;8.10;92.20
22173;DHT22;11252;50.596;17.648;2023-11-19T14:00:46;7.90;92.20
22173;DHT22;11252;50.596;17.648;2023-11-19T14:03:13;8.00;92.20
22173;DHT22;11252;50.596;17.648;2023-11-19T14:05:41;8.10;92.20
22173;DHT22;11252;50.596;17.648;2023-11-19T14:08:09;8.10;92.20
22173;DHT22;11252;50.596;17.648;2023-11-19T14:10:52;8.10;92.20
22173;DHT22;11252;50.596;17.648;2023-11-19T14:13:23;8.20;92.20
22173;DHT22;11252;50.596;17.648;2023-11-19T14:15:50;8.20;92.20
22173;DHT22;11252;50.596;17.648;2023-11-19T14:18:18;8.20;92.20
22173;DHT22;11252;50.596;17.648;2023-11-19T14:20:45;8.30;92.20
22173;DHT22;11252;50.596;17.648;2023-11-19T14:23:13;8.20;92.20
22173;DHT22;11252;50.596;17.648;2023-11-19T14:25:41;8.20;92.20
22173;DHT22;11252;50.596;17.648;2023-11-19T14:28:08;8.10;92.20
22173;DHT22;11252;50.596;17.648;2023-11-19T14:30:35;8.10;92.20
22173;DHT22;11252;50.596;17.648;2023-11-19T14:33:03;8.00;92.20
22173;DHT22;11252;50.596;17.648;2023-11-19T14:35:31;8.00;92.20
22173;DHT22;11252;50.596;17.648;2023-11-19T14:38:00;7.90;92.20
22173;DHT22;11252;50.596;17.648;2023-11-19T14:40:27;7.90;92.20
22173;DHT22;11252;50.596;17.648;2023-11-19T14:42:57;7.80;92.20
22173;DHT22;11252;50.596;17.648;2023-11-19T14:45:25;7.80;92.20
22173;DHT22;11252;50.596;17.648;2023-11-19T14:47:54;7.70;92.20
22173;DHT22;11252;50.596;17.648;2023-11-19T14:50:22;7.70;92.20
22173;DHT22;11252;50.596;17.648;2023-11-19T14:52:50;7.80;92.20
22173;DHT22;11252;50.596;17.648;2023-11-19T14:55:17;7.90;92.20
22173;DHT22;11252;50.596;17.648;2023-11-19T14:57:44;7.90;92.20
22173;DHT22;11252;50.596;17.648;2023-11-19T15:00:27;7.90;92.20
22173;DHT22;11252;50.596;17.648;2023-11-19T15:02:54;8.00;92.20
22173;DHT22;11252;50.596;17.648;2023-11-19T15:05:25;7.90;92.20
22173;DHT22;11252;50.596;17.648;2023-11-19T15:07:53;7.90;92.20
22173;DHT22;11252;50.596;17.648;2023-11-19T15:10:22;7.80;92.20
22173;DHT22;11252;50.596;17.648;2023-11-19T15:12:51;7.80;92.20
22173;DHT22;11252;50.596;17.648;2023-11-19T15:15:20;7.80;92.20
22173;DHT22;11252;50.596;17.648;2023-11-19T15:17:50;7.70;92.20
22173;DHT22;11252;50.596;17.648;2023-11-19T15:20:17;7.70;92.20
22173;DHT22;11252;50.596;17.648;2023-11-19T15:22:46;7.80;92.20
22173;DHT22;11252;50.596;17.648;2023-11-19T15:25:13;7.80;92.20
22173;DHT22;11252;50.596;17.648;2023-11-19T15:27:41;7.90;92.20
22173;DHT22;11252;50.596;17.648;2023-11-19T15:30:08;7.90;92.20
22173;DHT22;11252;50.596;17.648;2023-11-19T15:32:37;8.00;92.20
22173;DHT22;11252;50.596;17.648;2023-11-19T15:35:07;8.00;92.20
22173;DHT22;11252;50.596;17.648;2023-11-19T15:37:36;8.00;92.20
22173;DHT22;11252;50.596;17.648;2023-11-19T15:40:09;8.00;92.20
22173;DHT22;11252;50.596;17.648;2023-11-19T15:42:40;8.00;92.20
22173;DHT22;11252;50.596;17.648;2023-11-19T15:45:08;8.00;92.20
22173;DHT22;11252;50.596;17.648;2023-11-19T15:47:36;8.10;92.20
22173;DHT22;11252;50.596;17.648;2023-11-19T15:50:05;8.00;92.20
22173;DHT22;11252;50.596;17.648;2023-11-19T15:52:32;8.10;92.20
22173;DHT22;11252;50.596;17.648;2023-11-19T15:55:01;8.10;92.20
22173;DHT22;11252;50.596;17.648;2023-11-19T15:57:30;8.10;92.20
22173;DHT22;11252;50.596;17.648;2023-11-19T15:59:57;8.20;92.20
22173;DHT22;11252;50.596;17.648;2023-11-19T16:02:24;8.20;92.20
22173;DHT22;11252;50.596;17.648;2023-11-19T16:04:51;8.20;92.20
22173;DHT22;11252;50.596;17.648;2023-11-19T16:07:19;8.30;92.20
22173;DHT22;11252;50.596;17.648;2023-11-19T16:09:46;8.30;92.20
22173;DHT22;11252;50.596;17.648;2023-11-19T16:12:16;8.30;92.20
22173;DHT22;11252;50.596;17.648;2023-11-19T16:14:43;8.30;92.20